createdAt,value
2022-12-01T00:03:29.396Z,5.93
2022-12-01T00:08:31.347Z,4.93
2022-12-01T00:13:34.142Z,5.18
2022-12-01T00:18:35.725Z,5.15
2022-12-01T00:23:37.472Z,4.57
2022-12-01T00:28:39.257Z,5.38
2022-12-01T00:33:40.768Z,4.13
2022-12-01T00:38:42.414Z,5.22
2022-12-01T00:43:43.853Z,5.18
2022-12-01T00:48:45.327Z,5.13
2022-12-01T00:53:47.696Z,5.10
2022-12-01T00:58:49.295Z,4.88
2022-12-01T01:03:50.738Z,4.85
2022-12-01T01:08:52.324Z,4.75
2022-12-01T01:13:53.823Z,3.92
2022-12-01T01:18:55.279Z,4.72
2022-12-01T01:23:56.707Z,4.95
2022-12-01T01:29:00.680Z,5.22
2022-12-01T01:34:02.771Z,3.67
2022-12-01T01:39:04.303Z,3.88
2022-12-01T01:44:43.927Z,3.75
2022-12-01T01:49:45.613Z,4.35
2022-12-01T01:54:51.065Z,4.05
2022-12-01T01:59:58.301Z,3.72
2022-12-01T02:05:02.552Z,4.40
2022-12-01T02:10:05.436Z,3.75
2022-12-01T02:15:12.908Z,3.38
2022-12-01T02:20:26.424Z,4.50
2022-12-01T02:26:02.100Z,3.42
2022-12-01T02:31:18.856Z,3.70
2022-12-01T02:36:45.362Z,3.30
2022-12-01T02:41:52.606Z,3.08
2022-12-01T02:47:09.327Z,2.80
2022-12-01T02:52:14.576Z,3.45
2022-12-01T02:57:16.974Z,2.80
2022-12-01T03:02:37.324Z,3.05
2022-12-01T03:08:00.184Z,3.33
2022-12-01T03:13:09.081Z,3.35
2022-12-01T03:18:32.802Z,3.17
2022-12-01T03:23:38.551Z,4.22
2022-12-01T03:33:55.344Z,2.80
2022-12-01T03:39:01.540Z,3.38
2022-12-01T03:44:20.628Z,2.83
2022-12-01T03:49:23.406Z,2.45
2022-12-01T03:54:52.603Z,2.75
2022-12-01T03:59:54.542Z,2.67
2022-12-01T04:04:56.091Z,2.10
2022-12-01T04:09:57.594Z,1.70
2022-12-01T04:15:01.837Z,2.28
2022-12-01T04:20:04.378Z,2.17
2022-12-01T04:25:07.148Z,2.05
2022-12-01T04:30:09.082Z,2.28
2022-12-01T04:35:12.570Z,2.10
2022-12-01T04:40:14.211Z,2.42
2022-12-01T04:45:15.796Z,1.70
2022-12-01T04:50:17.326Z,2.15
2022-12-01T04:55:18.768Z,2.55
2022-12-01T05:00:20.352Z,2.78
2022-12-01T05:05:21.899Z,2.20
2022-12-01T05:10:23.377Z,1.92
2022-12-01T05:15:24.878Z,2.05
2022-12-01T05:20:26.491Z,2.03
2022-12-01T05:25:27.908Z,2.60
2022-12-01T05:30:29.518Z,2.17
2022-12-01T05:35:33.672Z,1.50
2022-12-01T05:40:36.241Z,2.47
2022-12-01T05:45:37.733Z,1.58
2022-12-01T05:50:39.996Z,1.70
2022-12-01T05:55:41.991Z,1.70
2022-12-01T06:00:45.956Z,1.60
2022-12-01T06:05:47.852Z,1.90
2022-12-01T06:10:49.512Z,1.15
2022-12-01T06:16:02.527Z,1.00
2022-12-01T06:21:05.920Z,1.20
2022-12-01T06:26:07.938Z,1.00
2022-12-01T06:31:09.525Z,0.90
2022-12-01T06:36:11.033Z,1.30
2022-12-01T06:41:12.521Z,1.20
2022-12-01T06:46:14.045Z,0.60
2022-12-01T06:51:15.552Z,1.65
2022-12-01T06:56:16.996Z,1.23
2022-12-01T07:01:19.259Z,1.27
2022-12-01T07:06:20.858Z,1.00
2022-12-01T07:11:22.317Z,1.45
2022-12-01T07:16:23.927Z,0.95
2022-12-01T07:21:25.529Z,1.77
2022-12-01T07:26:27.008Z,1.40
2022-12-01T07:31:28.493Z,2.03
2022-12-01T07:36:31.856Z,1.98
2022-12-01T07:41:34.053Z,1.90
2022-12-01T07:46:35.540Z,2.83
2022-12-01T07:51:37.143Z,2.20
2022-12-01T07:56:38.586Z,2.28
2022-12-01T08:01:44.326Z,2.65
2022-12-01T08:06:46.297Z,2.63
2022-12-01T08:11:47.799Z,2.80
2022-12-01T08:16:49.380Z,2.45
2022-12-01T08:21:50.900Z,2.15
2022-12-01T08:26:52.389Z,3.22
2022-12-01T08:31:53.919Z,2.22
2022-12-01T08:36:55.362Z,2.95
2022-12-01T08:41:56.835Z,2.88
2022-12-01T08:46:58.314Z,2.95
2022-12-01T08:51:59.866Z,2.42
2022-12-01T08:57:01.335Z,2.35
2022-12-01T09:02:06.917Z,3.38
2022-12-01T09:07:10.711Z,2.22
2022-12-01T09:12:12.883Z,2.30
2022-12-01T09:17:14.738Z,1.88
2022-12-01T09:22:16.387Z,1.60
2022-12-01T09:27:17.876Z,0.77
2022-12-01T09:32:19.303Z,1.13
2022-12-01T09:37:20.802Z,1.52
2022-12-01T09:42:22.680Z,1.35
2022-12-01T09:47:29.869Z,1.05
2022-12-01T09:52:41.933Z,0.90
2022-12-01T09:57:46.724Z,1.15
2022-12-01T10:03:17.694Z,1.60
2022-12-01T10:08:27.005Z,1.60
2022-12-01T10:13:29.114Z,1.77
2022-12-01T10:18:54.435Z,1.90
2022-12-01T10:24:14.440Z,2.23
2022-12-01T10:29:20.775Z,1.20
2022-12-01T10:34:29.203Z,2.25
2022-12-01T10:39:39.548Z,1.85
2022-12-01T10:44:42.170Z,1.52
2022-12-01T10:49:43.704Z,1.13
2022-12-01T10:54:45.153Z,1.48
2022-12-01T10:59:55.771Z,1.95
2022-12-01T11:05:03.213Z,1.58
2022-12-01T11:10:23.881Z,1.23
2022-12-01T11:15:32.558Z,1.70
2022-12-01T11:20:35.421Z,1.60
2022-12-01T11:25:37.113Z,2.13
2022-12-01T11:30:38.625Z,2.70
2022-12-01T11:35:47.764Z,2.10
2022-12-01T11:40:54.808Z,2.20
2022-12-01T11:46:00.064Z,1.55
2022-12-01T11:51:09.936Z,2.45
2022-12-01T11:56:20.335Z,1.42
2022-12-01T12:01:36.091Z,1.98
2022-12-01T12:07:15.193Z,1.98
2022-12-01T12:12:34.344Z,2.30
2022-12-01T12:17:42.824Z,2.60
2022-12-01T12:23:21.856Z,2.47
2022-12-01T12:28:23.224Z,2.45
2022-12-01T12:33:32.043Z,2.78
2022-12-01T12:39:00.829Z,4.32
2022-12-01T12:44:35.382Z,3.53
2022-12-01T12:49:44.918Z,3.95
2022-12-01T12:54:54.902Z,5.07
2022-12-01T13:00:02.479Z,5.15
2022-12-01T13:05:16.666Z,7.10
2022-12-01T13:10:29.282Z,5.57
2022-12-01T13:15:33.896Z,6.25
2022-12-01T13:20:35.607Z,6.30
2022-12-01T13:25:40.127Z,5.53
2022-12-01T13:30:41.655Z,5.22
2022-12-01T13:35:43.155Z,5.28
2022-12-01T13:40:44.737Z,5.13
2022-12-01T13:45:47.930Z,5.85
2022-12-01T13:51:01.031Z,6.93
2022-12-01T13:56:39.351Z,5.85
2022-12-01T14:01:44.179Z,5.45
2022-12-01T14:07:07.442Z,5.55
2022-12-01T14:12:11.689Z,5.35
2022-12-01T14:17:33.692Z,7.53
2022-12-01T14:22:41.371Z,6.50
2022-12-01T14:27:43.928Z,6.03
2022-12-01T14:32:45.373Z,6.55
2022-12-01T14:37:49.518Z,7.53
2022-12-01T14:42:53.791Z,6.68
2022-12-01T14:48:04.741Z,7.70
2022-12-01T14:53:23.969Z,6.00
2022-12-01T14:58:32.140Z,4.75
2022-12-01T15:03:38.131Z,7.05
2022-12-01T15:08:45.968Z,6.25
2022-12-01T15:13:54.381Z,6.10
2022-12-01T15:18:59.161Z,7.82
2022-12-01T15:24:03.088Z,4.78
2022-12-01T15:29:14.434Z,5.55
2022-12-01T15:34:26.763Z,7.32
2022-12-01T15:39:35.520Z,6.32
2022-12-01T15:44:37.046Z,5.25
2022-12-01T15:49:48.759Z,5.32
2022-12-01T15:54:50.817Z,5.82
2022-12-01T15:59:56.711Z,6.60
2022-12-01T16:05:17.366Z,7.00
2022-12-01T16:10:45.083Z,6.65
2022-12-01T16:15:46.509Z,6.13
2022-12-01T16:20:47.934Z,6.30
2022-12-01T16:25:49.483Z,6.07
2022-12-01T16:30:52.440Z,6.20
2022-12-01T16:35:54.785Z,5.60
2022-12-01T16:41:01.047Z,5.93
2022-12-01T16:46:06.230Z,4.85
2022-12-01T16:51:07.930Z,5.85
2022-12-01T16:56:13.206Z,5.70
2022-12-01T17:01:14.643Z,6.30
2022-12-01T17:06:18.797Z,5.25
2022-12-01T17:11:20.249Z,5.40
2022-12-01T17:16:21.708Z,6.32
2022-12-01T17:21:23.249Z,5.72
2022-12-01T17:26:24.760Z,6.32
2022-12-01T17:31:26.393Z,6.38
2022-12-01T17:36:27.884Z,6.15
2022-12-01T17:41:29.408Z,6.07
2022-12-01T17:46:31.868Z,4.10
2022-12-01T17:51:33.353Z,5.93
2022-12-01T17:56:34.915Z,6.20
2022-12-01T18:01:36.420Z,6.95
2022-12-01T18:06:38.003Z,5.15
2022-12-01T18:11:39.509Z,7.47
2022-12-01T18:16:40.936Z,7.07
2022-12-01T18:21:42.414Z,5.15
2022-12-01T18:26:44.120Z,5.25
2022-12-01T18:31:45.859Z,6.38
2022-12-01T18:36:47.592Z,5.47
2022-12-01T18:41:49.331Z,5.75
2022-12-01T18:46:50.882Z,6.10
2022-12-01T18:51:52.359Z,5.20
2022-12-01T18:56:53.798Z,5.88
2022-12-01T19:01:55.254Z,5.63
2022-12-01T19:06:56.680Z,4.93
2022-12-01T19:11:58.147Z,6.53
2022-12-01T19:16:59.567Z,4.97
2022-12-01T19:22:01.031Z,5.90
2022-12-01T19:27:02.450Z,4.90
2022-12-01T19:32:03.988Z,4.95
2022-12-01T19:37:05.372Z,5.15
2022-12-01T19:42:07.000Z,4.28
2022-12-01T19:47:08.410Z,5.15
2022-12-01T19:52:09.852Z,5.70
2022-12-01T19:57:11.382Z,4.63
2022-12-01T20:02:13.205Z,4.80
2022-12-01T20:07:14.638Z,5.63
2022-12-01T20:12:16.156Z,4.95
2022-12-01T20:17:17.750Z,5.18
2022-12-01T20:22:19.202Z,5.13
2022-12-01T20:27:20.723Z,5.13
2022-12-01T20:32:23.777Z,5.00
2022-12-01T20:37:25.420Z,5.38
2022-12-01T20:42:26.919Z,6.05
2022-12-01T20:47:28.377Z,5.57
2022-12-01T20:52:30.819Z,6.30
2022-12-01T20:57:32.460Z,5.75
2022-12-01T21:02:33.931Z,5.78
2022-12-01T21:07:35.539Z,6.13
2022-12-01T21:12:38.352Z,5.95
2022-12-01T21:17:42.481Z,5.47
2022-12-01T21:22:45.702Z,5.97
2022-12-01T21:27:47.788Z,5.32
2022-12-01T21:32:49.594Z,5.97
2022-12-01T21:37:58.196Z,6.07
2022-12-01T21:43:12.268Z,6.85
2022-12-01T21:48:19.752Z,6.57
2022-12-01T21:53:22.290Z,6.78
2022-12-01T21:58:30.430Z,7.55
2022-12-01T22:03:37.354Z,6.60
2022-12-01T22:08:43.053Z,6.68
2022-12-01T22:14:13.316Z,5.60
2022-12-01T22:19:14.693Z,5.88
2022-12-01T22:24:23.602Z,7.90
2022-12-01T22:29:25.081Z,7.40
2022-12-01T22:34:26.506Z,7.57
2022-12-01T22:39:32.689Z,6.88
2022-12-01T22:44:34.303Z,6.10
2022-12-01T22:49:35.775Z,8.40
2022-12-01T22:54:44.700Z,6.85
2022-12-01T22:59:46.152Z,7.97
2022-12-01T23:04:49.387Z,7.50
2022-12-01T23:09:51.307Z,7.75
2022-12-01T23:14:55.079Z,8.73
2022-12-01T23:20:19.727Z,6.97
2022-12-01T23:25:21.798Z,6.88
2022-12-01T23:30:23.336Z,6.65
2022-12-01T23:35:24.881Z,7.22
2022-12-01T23:40:31.239Z,7.85
2022-12-01T23:45:33.081Z,8.30
2022-12-01T23:50:34.604Z,8.70
2022-12-01T23:55:36.020Z,8.73
